sensor_id;sensor_type;location;lat;lon;timestamp;P1;durP1;ratioP1;P2;durP2;ratioP2
67272;SDS011;54190;49.770;9.250;2023-12-04T00:01:52;17.27;;;9.07;;
67272;SDS011;54190;49.770;9.250;2023-12-04T00:04:18;18.60;;;8.77;;
67272;SDS011;54190;49.770;9.250;2023-12-04T00:06:44;18.00;;;8.20;;
67272;SDS011;54190;49.770;9.250;2023-12-04T00:09:10;17.80;;;8.80;;
67272;SDS011;54190;49.770;9.250;2023-12-04T00:11:36;17.40;;;9.03;;
67272;SDS011;54190;49.770;9.250;2023-12-04T00:14:02;14.97;;;7.80;;
67272;SDS011;54190;49.770;9.250;2023-12-04T00:16:28;19.37;;;9.07;;
67272;SDS011;54190;49.770;9.250;2023-12-04T00:18:54;18.77;;;9.80;;
67272;SDS011;54190;49.770;9.250;2023-12-04T00:21:20;19.70;;;10.07;;
67272;SDS011;54190;49.770;9.250;2023-12-04T00:23:46;14.07;;;7.53;;
67272;SDS011;54190;49.770;9.250;2023-12-04T00:26:12;19.70;;;9.40;;
67272;SDS011;54190;49.770;9.250;2023-12-04T00:28:39;18.37;;;8.30;;
67272;SDS011;54190;49.770;9.250;2023-12-04T00:31:05;22.50;;;9.43;;
67272;SDS011;54190;49.770;9.250;2023-12-04T00:33:31;14.63;;;8.23;;
67272;SDS011;54190;49.770;9.250;2023-12-04T00:35:57;15.50;;;9.00;;
67272;SDS011;54190;49.770;9.250;2023-12-04T00:38:23;20.50;;;9.30;;
67272;SDS011;54190;49.770;9.250;2023-12-04T00:40:49;21.77;;;9.10;;
67272;SDS011;54190;49.770;9.250;2023-12-04T00:43:14;19.40;;;7.80;;
67272;SDS011;54190;49.770;9.250;2023-12-04T00:45:40;20.17;;;10.20;;
67272;SDS011;54190;49.770;9.250;2023-12-04T00:48:06;15.50;;;7.73;;
67272;SDS011;54190;49.770;9.250;2023-12-04T00:50:32;18.40;;;9.20;;
67272;SDS011;54190;49.770;9.250;2023-12-04T00:52:58;20.10;;;9.77;;
67272;SDS011;54190;49.770;9.250;2023-12-04T00:55:24;16.27;;;7.80;;
67272;SDS011;54190;49.770;9.250;2023-12-04T00:57:50;15.63;;;8.20;;
67272;SDS011;54190;49.770;9.250;2023-12-04T01:00:16;20.50;;;10.20;;
67272;SDS011;54190;49.770;9.250;2023-12-04T01:02:42;22.07;;;9.50;;
67272;SDS011;54190;49.770;9.250;2023-12-04T01:05:08;17.23;;;8.47;;
67272;SDS011;54190;49.770;9.250;2023-12-04T01:07:34;15.30;;;8.20;;
67272;SDS011;54190;49.770;9.250;2023-12-04T01:10:00;17.73;;;8.97;;
67272;SDS011;54190;49.770;9.250;2023-12-04T01:12:26;17.73;;;9.03;;
67272;SDS011;54190;49.770;9.250;2023-12-04T01:14:52;21.00;;;8.63;;
67272;SDS011;54190;49.770;9.250;2023-12-04T01:17:18;20.83;;;9.63;;
67272;SDS011;54190;49.770;9.250;2023-12-04T01:19:44;16.90;;;8.50;;
67272;SDS011;54190;49.770;9.250;2023-12-04T01:22:10;17.60;;;8.67;;
67272;SDS011;54190;49.770;9.250;2023-12-04T01:24:36;18.03;;;9.10;;
67272;SDS011;54190;49.770;9.250;2023-12-04T01:27:02;19.00;;;8.17;;
67272;SDS011;54190;49.770;9.250;2023-12-04T01:29:28;23.03;;;9.07;;
67272;SDS011;54190;49.770;9.250;2023-12-04T01:31:54;17.90;;;8.47;;
67272;SDS011;54190;49.770;9.250;2023-12-04T01:34:20;13.13;;;7.80;;
67272;SDS011;54190;49.770;9.250;2023-12-04T01:36:46;13.40;;;7.40;;
67272;SDS011;54190;49.770;9.250;2023-12-04T01:39:14;17.17;;;8.20;;
67272;SDS011;54190;49.770;9.250;2023-12-04T01:41:40;17.77;;;8.33;;
67272;SDS011;54190;49.770;9.250;2023-12-04T01:44:06;16.60;;;9.20;;
67272;SDS011;54190;49.770;9.250;2023-12-04T01:46:33;17.37;;;9.00;;
67272;SDS011;54190;49.770;9.250;2023-12-04T01:48:59;15.93;;;8.33;;
67272;SDS011;54190;49.770;9.250;2023-12-04T01:51:28;15.77;;;8.00;;
67272;SDS011;54190;49.770;9.250;2023-12-04T01:53:55;18.70;;;8.67;;
67272;SDS011;54190;49.770;9.250;2023-12-04T01:56:24;19.30;;;9.20;;
67272;SDS011;54190;49.770;9.250;2023-12-04T01:58:50;18.10;;;8.47;;
67272;SDS011;54190;49.770;9.250;2023-12-04T02:01:16;20.47;;;9.27;;
67272;SDS011;54190;49.770;9.250;2023-12-04T02:03:44;18.70;;;8.73;;
67272;SDS011;54190;49.770;9.250;2023-12-04T02:06:13;18.90;;;9.30;;
67272;SDS011;54190;49.770;9.250;2023-12-04T02:08:54;17.50;;;10.17;;
67272;SDS011;54190;49.770;9.250;2023-12-04T02:11:21;18.43;;;8.70;;
67272;SDS011;54190;49.770;9.250;2023-12-04T02:13:47;18.57;;;8.83;;
67272;SDS011;54190;49.770;9.250;2023-12-04T02:16:13;16.00;;;8.27;;
67272;SDS011;54190;49.770;9.250;2023-12-04T02:18:42;25.60;;;10.33;;
67272;SDS011;54190;49.770;9.250;2023-12-04T02:21:08;18.07;;;9.83;;
67272;SDS011;54190;49.770;9.250;2023-12-04T02:23:34;22.40;;;9.60;;
67272;SDS011;54190;49.770;9.250;2023-12-04T02:26:10;15.93;;;9.07;;
67272;SDS011;54190;49.770;9.250;2023-12-04T02:28:40;18.60;;;9.70;;
67272;SDS011;54190;49.770;9.250;2023-12-04T02:31:11;18.97;;;8.67;;
67272;SDS011;54190;49.770;9.250;2023-12-04T02:33:37;16.30;;;8.13;;
67272;SDS011;54190;49.770;9.250;2023-12-04T02:36:05;18.87;;;9.53;;
67272;SDS011;54190;49.770;9.250;2023-12-04T02:38:32;17.33;;;8.50;;
67272;SDS011;54190;49.770;9.250;2023-12-04T02:40:58;16.27;;;8.20;;
67272;SDS011;54190;49.770;9.250;2023-12-04T02:43:24;15.37;;;7.73;;
67272;SDS011;54190;49.770;9.250;2023-12-04T02:45:50;21.57;;;8.90;;
67272;SDS011;54190;49.770;9.250;2023-12-04T02:48:16;19.80;;;8.33;;
67272;SDS011;54190;49.770;9.250;2023-12-04T02:50:42;17.53;;;8.50;;
67272;SDS011;54190;49.770;9.250;2023-12-04T02:53:08;18.40;;;8.80;;
67272;SDS011;54190;49.770;9.250;2023-12-04T02:55:34;17.00;;;8.63;;
67272;SDS011;54190;49.770;9.250;2023-12-04T02:58:00;20.57;;;8.83;;
67272;SDS011;54190;49.770;9.250;2023-12-04T03:00:29;17.93;;;8.97;;
67272;SDS011;54190;49.770;9.250;2023-12-04T03:02:55;17.60;;;8.50;;
67272;SDS011;54190;49.770;9.250;2023-12-04T03:05:21;14.93;;;7.43;;
67272;SDS011;54190;49.770;9.250;2023-12-04T03:07:47;21.00;;;8.90;;
67272;SDS011;54190;49.770;9.250;2023-12-04T03:10:12;21.77;;;9.27;;
67272;SDS011;54190;49.770;9.250;2023-12-04T03:12:38;20.87;;;8.90;;
67272;SDS011;54190;49.770;9.250;2023-12-04T03:15:04;23.03;;;9.43;;
67272;SDS011;54190;49.770;9.250;2023-12-04T03:17:31;23.67;;;9.73;;
67272;SDS011;54190;49.770;9.250;2023-12-04T03:19:57;18.97;;;9.77;;
67272;SDS011;54190;49.770;9.250;2023-12-04T03:22:24;16.27;;;8.00;;
67272;SDS011;54190;49.770;9.250;2023-12-04T03:24:49;16.83;;;7.40;;
67272;SDS011;54190;49.770;9.250;2023-12-04T03:27:15;17.50;;;8.27;;
67272;SDS011;54190;49.770;9.250;2023-12-04T03:29:41;14.70;;;6.97;;
67272;SDS011;54190;49.770;9.250;2023-12-04T03:32:07;16.90;;;9.37;;
67272;SDS011;54190;49.770;9.250;2023-12-04T03:34:33;15.73;;;8.50;;
67272;SDS011;54190;49.770;9.250;2023-12-04T03:36:58;16.97;;;8.93;;
67272;SDS011;54190;49.770;9.250;2023-12-04T03:39:24;15.20;;;7.77;;
67272;SDS011;54190;49.770;9.250;2023-12-04T03:41:50;14.67;;;6.90;;
67272;SDS011;54190;49.770;9.250;2023-12-04T03:44:16;14.67;;;6.37;;
67272;SDS011;54190;49.770;9.250;2023-12-04T03:46:42;15.33;;;8.33;;
67272;SDS011;54190;49.770;9.250;2023-12-04T03:49:08;17.07;;;7.97;;
67272;SDS011;54190;49.770;9.250;2023-12-04T03:51:34;13.27;;;7.73;;
67272;SDS011;54190;49.770;9.250;2023-12-04T03:54:00;15.80;;;7.70;;
67272;SDS011;54190;49.770;9.250;2023-12-04T03:56:26;12.90;;;6.53;;
67272;SDS011;54190;49.770;9.250;2023-12-04T03:58:52;16.03;;;8.07;;
67272;SDS011;54190;49.770;9.250;2023-12-04T04:01:18;14.80;;;6.70;;
67272;SDS011;54190;49.770;9.250;2023-12-04T04:03:47;12.80;;;6.63;;
67272;SDS011;54190;49.770;9.250;2023-12-04T04:06:13;14.13;;;7.53;;
67272;SDS011;54190;49.770;9.250;2023-12-04T04:08:39;10.70;;;5.80;;
67272;SDS011;54190;49.770;9.250;2023-12-04T04:11:05;12.97;;;7.30;;
67272;SDS011;54190;49.770;9.250;2023-12-04T04:13:31;17.57;;;8.30;;
67272;SDS011;54190;49.770;9.250;2023-12-04T04:15:57;14.60;;;7.60;;
67272;SDS011;54190;49.770;9.250;2023-12-04T04:18:22;21.27;;;9.47;;
67272;SDS011;54190;49.770;9.250;2023-12-04T04:20:48;16.50;;;8.93;;
67272;SDS011;54190;49.770;9.250;2023-12-04T04:23:14;11.60;;;6.97;;
67272;SDS011;54190;49.770;9.250;2023-12-04T04:25:40;18.03;;;8.10;;
67272;SDS011;54190;49.770;9.250;2023-12-04T04:28:06;15.53;;;7.57;;
67272;SDS011;54190;49.770;9.250;2023-12-04T04:30:31;20.60;;;8.70;;
67272;SDS011;54190;49.770;9.250;2023-12-04T04:32:57;20.10;;;8.80;;
67272;SDS011;54190;49.770;9.250;2023-12-04T04:35:23;16.27;;;8.00;;
67272;SDS011;54190;49.770;9.250;2023-12-04T04:37:50;14.00;;;8.30;;
67272;SDS011;54190;49.770;9.250;2023-12-04T04:40:16;17.20;;;8.30;;
67272;SDS011;54190;49.770;9.250;2023-12-04T04:42:42;14.37;;;7.30;;
67272;SDS011;54190;49.770;9.250;2023-12-04T04:45:08;14.00;;;7.53;;
67272;SDS011;54190;49.770;9.250;2023-12-04T04:47:34;14.80;;;7.80;;
67272;SDS011;54190;49.770;9.250;2023-12-04T04:50:00;19.80;;;8.30;;
67272;SDS011;54190;49.770;9.250;2023-12-04T04:52:26;16.00;;;8.33;;
67272;SDS011;54190;49.770;9.250;2023-12-04T04:54:52;12.83;;;8.07;;
67272;SDS011;54190;49.770;9.250;2023-12-04T04:57:18;19.60;;;9.70;;
67272;SDS011;54190;49.770;9.250;2023-12-04T04:59:44;15.60;;;8.57;;
67272;SDS011;54190;49.770;9.250;2023-12-04T05:02:10;16.27;;;8.80;;
67272;SDS011;54190;49.770;9.250;2023-12-04T05:04:36;19.77;;;8.80;;
67272;SDS011;54190;49.770;9.250;2023-12-04T05:07:02;16.50;;;7.87;;
67272;SDS011;54190;49.770;9.250;2023-12-04T05:09:28;16.87;;;8.70;;
67272;SDS011;54190;49.770;9.250;2023-12-04T05:11:55;13.80;;;7.47;;
67272;SDS011;54190;49.770;9.250;2023-12-04T05:14:21;19.07;;;8.23;;
67272;SDS011;54190;49.770;9.250;2023-12-04T05:16:46;14.70;;;7.87;;
67272;SDS011;54190;49.770;9.250;2023-12-04T05:19:12;15.23;;;7.63;;
67272;SDS011;54190;49.770;9.250;2023-12-04T05:21:38;16.77;;;7.87;;
67272;SDS011;54190;49.770;9.250;2023-12-04T05:24:04;18.37;;;9.20;;
67272;SDS011;54190;49.770;9.250;2023-12-04T05:26:30;14.77;;;7.20;;
67272;SDS011;54190;49.770;9.250;2023-12-04T05:28:56;15.60;;;8.30;;
67272;SDS011;54190;49.770;9.250;2023-12-04T05:31:22;16.20;;;8.80;;
67272;SDS011;54190;49.770;9.250;2023-12-04T05:33:48;12.07;;;6.50;;
67272;SDS011;54190;49.770;9.250;2023-12-04T05:36:17;17.23;;;8.83;;
67272;SDS011;54190;49.770;9.250;2023-12-04T05:38:43;17.00;;;8.37;;
67272;SDS011;54190;49.770;9.250;2023-12-04T05:41:09;17.10;;;8.63;;
67272;SDS011;54190;49.770;9.250;2023-12-04T05:43:35;16.90;;;8.43;;
67272;SDS011;54190;49.770;9.250;2023-12-04T05:46:00;19.67;;;9.30;;
67272;SDS011;54190;49.770;9.250;2023-12-04T05:48:27;17.13;;;8.03;;
67272;SDS011;54190;49.770;9.250;2023-12-04T05:50:52;15.67;;;8.50;;
67272;SDS011;54190;49.770;9.250;2023-12-04T05:53:18;16.40;;;8.30;;
67272;SDS011;54190;49.770;9.250;2023-12-04T05:55:44;14.57;;;7.47;;
67272;SDS011;54190;49.770;9.250;2023-12-04T05:58:11;15.27;;;8.00;;
67272;SDS011;54190;49.770;9.250;2023-12-04T06:00:37;13.23;;;7.83;;
67272;SDS011;54190;49.770;9.250;2023-12-04T06:03:03;17.10;;;8.00;;
67272;SDS011;54190;49.770;9.250;2023-12-04T06:05:29;15.57;;;7.77;;
67272;SDS011;54190;49.770;9.250;2023-12-04T06:07:54;17.97;;;9.00;;
67272;SDS011;54190;49.770;9.250;2023-12-04T06:10:20;18.03;;;7.83;;
67272;SDS011;54190;49.770;9.250;2023-12-04T06:12:46;13.70;;;7.90;;
67272;SDS011;54190;49.770;9.250;2023-12-04T06:15:13;15.43;;;7.93;;
67272;SDS011;54190;49.770;9.250;2023-12-04T06:17:41;14.17;;;7.33;;
67272;SDS011;54190;49.770;9.250;2023-12-04T06:20:07;16.97;;;8.53;;
67272;SDS011;54190;49.770;9.250;2023-12-04T06:22:34;14.93;;;8.10;;
67272;SDS011;54190;49.770;9.250;2023-12-04T06:25:00;14.67;;;8.10;;
67272;SDS011;54190;49.770;9.250;2023-12-04T06:27:26;14.90;;;8.70;;
67272;SDS011;54190;49.770;9.250;2023-12-04T06:29:52;17.13;;;8.90;;
67272;SDS011;54190;49.770;9.250;2023-12-04T06:32:19;14.43;;;7.77;;
67272;SDS011;54190;49.770;9.250;2023-12-04T06:34:45;17.30;;;8.50;;
67272;SDS011;54190;49.770;9.250;2023-12-04T06:37:12;21.27;;;9.77;;
67272;SDS011;54190;49.770;9.250;2023-12-04T06:39:39;19.10;;;9.37;;
67272;SDS011;54190;49.770;9.250;2023-12-04T06:42:06;17.23;;;7.73;;
67272;SDS011;54190;49.770;9.250;2023-12-04T06:44:33;16.40;;;7.60;;
67272;SDS011;54190;49.770;9.250;2023-12-04T06:46:59;16.93;;;8.90;;
67272;SDS011;54190;49.770;9.250;2023-12-04T06:49:31;18.13;;;8.70;;
67272;SDS011;54190;49.770;9.250;2023-12-04T06:52:00;14.27;;;7.40;;
67272;SDS011;54190;49.770;9.250;2023-12-04T06:54:26;16.30;;;7.77;;
67272;SDS011;54190;49.770;9.250;2023-12-04T06:56:52;17.80;;;8.77;;
67272;SDS011;54190;49.770;9.250;2023-12-04T06:59:18;14.93;;;7.17;;
67272;SDS011;54190;49.770;9.250;2023-12-04T07:01:44;17.57;;;9.03;;
67272;SDS011;54190;49.770;9.250;2023-12-04T07:04:10;16.10;;;8.20;;
67272;SDS011;54190;49.770;9.250;2023-12-04T07:06:37;18.83;;;9.03;;
67272;SDS011;54190;49.770;9.250;2023-12-04T07:09:06;18.77;;;9.10;;
67272;SDS011;54190;49.770;9.250;2023-12-04T07:11:35;17.33;;;7.97;;
67272;SDS011;54190;49.770;9.250;2023-12-04T07:14:01;14.73;;;8.03;;
67272;SDS011;54190;49.770;9.250;2023-12-04T07:16:27;20.23;;;9.90;;
67272;SDS011;54190;49.770;9.250;2023-12-04T07:18:53;17.57;;;8.20;;
67272;SDS011;54190;49.770;9.250;2023-12-04T07:21:19;19.37;;;9.27;;
67272;SDS011;54190;49.770;9.250;2023-12-04T07:23:45;18.70;;;8.80;;
67272;SDS011;54190;49.770;9.250;2023-12-04T07:26:11;17.20;;;8.07;;
67272;SDS011;54190;49.770;9.250;2023-12-04T07:28:37;19.43;;;9.57;;
67272;SDS011;54190;49.770;9.250;2023-12-04T07:31:02;17.07;;;8.90;;
67272;SDS011;54190;49.770;9.250;2023-12-04T07:33:29;15.87;;;7.70;;
67272;SDS011;54190;49.770;9.250;2023-12-04T07:35:55;17.43;;;8.47;;
67272;SDS011;54190;49.770;9.250;2023-12-04T07:38:21;20.33;;;9.30;;
67272;SDS011;54190;49.770;9.250;2023-12-04T07:40:47;18.10;;;8.47;;
67272;SDS011;54190;49.770;9.250;2023-12-04T07:43:13;16.10;;;8.10;;
67272;SDS011;54190;49.770;9.250;2023-12-04T07:45:39;19.30;;;8.60;;
67272;SDS011;54190;49.770;9.250;2023-12-04T07:48:06;18.70;;;8.50;;
67272;SDS011;54190;49.770;9.250;2023-12-04T07:50:32;14.20;;;7.63;;
67272;SDS011;54190;49.770;9.250;2023-12-04T07:52:59;18.27;;;8.83;;
67272;SDS011;54190;49.770;9.250;2023-12-04T07:55:25;14.63;;;7.63;;
67272;SDS011;54190;49.770;9.250;2023-12-04T07:57:51;15.63;;;7.73;;
67272;SDS011;54190;49.770;9.250;2023-12-04T08:00:17;16.30;;;7.30;;
67272;SDS011;54190;49.770;9.250;2023-12-04T08:02:44;17.70;;;8.40;;
67272;SDS011;54190;49.770;9.250;2023-12-04T08:05:11;14.57;;;7.83;;
67272;SDS011;54190;49.770;9.250;2023-12-04T08:07:37;16.80;;;7.80;;
67272;SDS011;54190;49.770;9.250;2023-12-04T08:10:03;12.87;;;7.70;;
67272;SDS011;54190;49.770;9.250;2023-12-04T08:12:30;15.90;;;8.00;;
67272;SDS011;54190;49.770;9.250;2023-12-04T08:14:56;16.03;;;8.53;;
67272;SDS011;54190;49.770;9.250;2023-12-04T08:17:21;15.67;;;7.70;;
67272;SDS011;54190;49.770;9.250;2023-12-04T08:19:47;14.70;;;8.03;;
67272;SDS011;54190;49.770;9.250;2023-12-04T08:22:13;16.90;;;7.30;;
67272;SDS011;54190;49.770;9.250;2023-12-04T08:24:39;17.77;;;7.77;;
67272;SDS011;54190;49.770;9.250;2023-12-04T08:27:05;13.60;;;7.60;;
67272;SDS011;54190;49.770;9.250;2023-12-04T08:29:30;13.70;;;7.60;;
67272;SDS011;54190;49.770;9.250;2023-12-04T08:31:56;12.53;;;7.27;;
67272;SDS011;54190;49.770;9.250;2023-12-04T08:34:22;15.10;;;7.03;;
67272;SDS011;54190;49.770;9.250;2023-12-04T08:36:48;17.07;;;8.53;;
67272;SDS011;54190;49.770;9.250;2023-12-04T08:39:14;15.70;;;8.90;;
67272;SDS011;54190;49.770;9.250;2023-12-04T08:41:40;12.90;;;6.53;;
67272;SDS011;54190;49.770;9.250;2023-12-04T08:44:06;17.40;;;8.60;;
67272;SDS011;54190;49.770;9.250;2023-12-04T08:46:31;16.17;;;8.37;;
67272;SDS011;54190;49.770;9.250;2023-12-04T08:48:57;12.53;;;7.00;;
67272;SDS011;54190;49.770;9.250;2023-12-04T08:51:23;13.17;;;7.77;;
67272;SDS011;54190;49.770;9.250;2023-12-04T08:53:49;15.43;;;7.80;;
67272;SDS011;54190;49.770;9.250;2023-12-04T08:56:15;17.37;;;9.20;;
67272;SDS011;54190;49.770;9.250;2023-12-04T08:58:41;16.20;;;8.17;;
67272;SDS011;54190;49.770;9.250;2023-12-04T09:01:07;12.73;;;6.80;;
67272;SDS011;54190;49.770;9.250;2023-12-04T09:03:32;19.53;;;8.20;;
67272;SDS011;54190;49.770;9.250;2023-12-04T09:05:58;19.53;;;8.53;;
67272;SDS011;54190;49.770;9.250;2023-12-04T09:08:24;14.00;;;8.10;;
67272;SDS011;54190;49.770;9.250;2023-12-04T09:10:53;15.97;;;8.53;;
67272;SDS011;54190;49.770;9.250;2023-12-04T09:13:19;14.10;;;7.50;;
67272;SDS011;54190;49.770;9.250;2023-12-04T09:15:45;16.30;;;8.40;;
67272;SDS011;54190;49.770;9.250;2023-12-04T09:18:12;17.70;;;8.77;;
67272;SDS011;54190;49.770;9.250;2023-12-04T09:20:37;12.50;;;6.63;;
67272;SDS011;54190;49.770;9.250;2023-12-04T09:23:04;18.60;;;9.10;;
67272;SDS011;54190;49.770;9.250;2023-12-04T09:25:30;15.63;;;8.23;;
67272;SDS011;54190;49.770;9.250;2023-12-04T09:27:56;11.47;;;6.47;;
67272;SDS011;54190;49.770;9.250;2023-12-04T09:30:22;17.10;;;6.93;;
67272;SDS011;54190;49.770;9.250;2023-12-04T09:32:47;18.03;;;8.47;;
67272;SDS011;54190;49.770;9.250;2023-12-04T09:35:13;15.40;;;7.93;;
67272;SDS011;54190;49.770;9.250;2023-12-04T09:37:40;13.50;;;6.90;;
67272;SDS011;54190;49.770;9.250;2023-12-04T09:40:06;15.40;;;7.07;;
67272;SDS011;54190;49.770;9.250;2023-12-04T09:42:33;12.93;;;7.03;;
67272;SDS011;54190;49.770;9.250;2023-12-04T09:44:59;12.87;;;7.90;;
67272;SDS011;54190;49.770;9.250;2023-12-04T09:47:26;18.93;;;9.00;;
67272;SDS011;54190;49.770;9.250;2023-12-04T09:49:53;14.97;;;7.27;;
67272;SDS011;54190;49.770;9.250;2023-12-04T09:52:22;13.07;;;7.83;;
67272;SDS011;54190;49.770;9.250;2023-12-04T09:54:50;12.40;;;7.00;;
67272;SDS011;54190;49.770;9.250;2023-12-04T09:57:16;15.20;;;7.77;;
67272;SDS011;54190;49.770;9.250;2023-12-04T09:59:43;13.50;;;7.10;;
67272;SDS011;54190;49.770;9.250;2023-12-04T10:02:11;13.50;;;7.23;;
67272;SDS011;54190;49.770;9.250;2023-12-04T10:04:37;14.90;;;8.67;;
67272;SDS011;54190;49.770;9.250;2023-12-04T10:07:03;10.43;;;6.00;;
67272;SDS011;54190;49.770;9.250;2023-12-04T10:09:29;13.43;;;6.73;;
67272;SDS011;54190;49.770;9.250;2023-12-04T10:11:56;14.27;;;7.33;;
67272;SDS011;54190;49.770;9.250;2023-12-04T10:14:22;13.87;;;7.20;;
67272;SDS011;54190;49.770;9.250;2023-12-04T10:16:48;13.37;;;7.77;;
67272;SDS011;54190;49.770;9.250;2023-12-04T10:19:19;17.57;;;8.00;;
67272;SDS011;54190;49.770;9.250;2023-12-04T10:21:54;12.47;;;6.50;;
67272;SDS011;54190;49.770;9.250;2023-12-04T10:24:28;14.03;;;8.03;;
67272;SDS011;54190;49.770;9.250;2023-12-04T10:26:55;11.80;;;6.40;;
67272;SDS011;54190;49.770;9.250;2023-12-04T10:29:23;12.57;;;6.40;;
67272;SDS011;54190;49.770;9.250;2023-12-04T10:31:50;15.00;;;6.37;;
67272;SDS011;54190;49.770;9.250;2023-12-04T10:34:17;11.97;;;5.60;;
67272;SDS011;54190;49.770;9.250;2023-12-04T10:36:44;11.57;;;6.00;;
67272;SDS011;54190;49.770;9.250;2023-12-04T10:39:11;15.57;;;7.67;;
67272;SDS011;54190;49.770;9.250;2023-12-04T10:41:38;13.43;;;6.93;;
67272;SDS011;54190;49.770;9.250;2023-12-04T10:44:04;16.27;;;7.33;;
67272;SDS011;54190;49.770;9.250;2023-12-04T10:46:31;12.20;;;6.70;;
67272;SDS011;54190;49.770;9.250;2023-12-04T10:49:00;16.60;;;7.40;;
67272;SDS011;54190;49.770;9.250;2023-12-04T10:51:29;12.03;;;5.83;;
67272;SDS011;54190;49.770;9.250;2023-12-04T10:53:56;13.80;;;5.93;;
67272;SDS011;54190;49.770;9.250;2023-12-04T10:56:33;12.67;;;6.77;;
67272;SDS011;54190;49.770;9.250;2023-12-04T10:59:03;10.73;;;5.80;;
67272;SDS011;54190;49.770;9.250;2023-12-04T11:01:37;10.30;;;5.07;;
67272;SDS011;54190;49.770;9.250;2023-12-04T11:04:06;11.47;;;6.23;;
67272;SDS011;54190;49.770;9.250;2023-12-04T11:06:37;13.40;;;6.70;;
67272;SDS011;54190;49.770;9.250;2023-12-04T11:09:05;12.50;;;6.63;;
67272;SDS011;54190;49.770;9.250;2023-12-04T11:11:36;13.10;;;6.30;;
67272;SDS011;54190;49.770;9.250;2023-12-04T11:14:05;13.27;;;6.70;;
67272;SDS011;54190;49.770;9.250;2023-12-04T11:21:53;15.67;;;6.27;;
67272;SDS011;54190;49.770;9.250;2023-12-04T11:24:22;12.73;;;6.40;;
67272;SDS011;54190;49.770;9.250;2023-12-04T11:26:48;11.33;;;5.77;;
67272;SDS011;54190;49.770;9.250;2023-12-04T11:29:15;12.77;;;6.20;;
67272;SDS011;54190;49.770;9.250;2023-12-04T11:31:42;9.77;;;5.23;;
67272;SDS011;54190;49.770;9.250;2023-12-04T11:34:08;13.30;;;6.23;;
67272;SDS011;54190;49.770;9.250;2023-12-04T11:36:37;10.90;;;5.40;;
67272;SDS011;54190;49.770;9.250;2023-12-04T11:39:03;12.87;;;7.23;;
67272;SDS011;54190;49.770;9.250;2023-12-04T11:41:36;14.47;;;5.73;;
67272;SDS011;54190;49.770;9.250;2023-12-04T11:44:02;11.70;;;5.70;;
67272;SDS011;54190;49.770;9.250;2023-12-04T11:46:29;10.33;;;5.77;;
67272;SDS011;54190;49.770;9.250;2023-12-04T11:51:53;8.07;;;4.50;;
67272;SDS011;54190;49.770;9.250;2023-12-04T11:54:22;12.80;;;6.23;;
67272;SDS011;54190;49.770;9.250;2023-12-04T11:59:25;11.23;;;5.50;;
67272;SDS011;54190;49.770;9.250;2023-12-04T12:01:53;11.63;;;6.10;;
67272;SDS011;54190;49.770;9.250;2023-12-04T12:04:21;11.63;;;5.70;;
67272;SDS011;54190;49.770;9.250;2023-12-04T12:06:48;7.63;;;4.80;;
67272;SDS011;54190;49.770;9.250;2023-12-04T12:09:14;8.20;;;5.20;;
67272;SDS011;54190;49.770;9.250;2023-12-04T12:11:40;8.27;;;4.93;;
67272;SDS011;54190;49.770;9.250;2023-12-04T12:14:06;15.63;;;6.30;;
67272;SDS011;54190;49.770;9.250;2023-12-04T12:16:32;8.10;;;5.13;;
67272;SDS011;54190;49.770;9.250;2023-12-04T12:18:58;9.67;;;5.33;;
67272;SDS011;54190;49.770;9.250;2023-12-04T12:21:27;15.23;;;5.97;;
67272;SDS011;54190;49.770;9.250;2023-12-04T12:23:54;9.83;;;5.43;;
67272;SDS011;54190;49.770;9.250;2023-12-04T12:26:20;10.83;;;5.40;;
67272;SDS011;54190;49.770;9.250;2023-12-04T12:28:45;13.67;;;6.17;;
67272;SDS011;54190;49.770;9.250;2023-12-04T12:31:11;14.10;;;6.37;;
67272;SDS011;54190;49.770;9.250;2023-12-04T12:33:37;9.97;;;5.30;;
67272;SDS011;54190;49.770;9.250;2023-12-04T12:36:03;10.13;;;5.47;;
67272;SDS011;54190;49.770;9.250;2023-12-04T12:38:33;8.83;;;5.60;;
67272;SDS011;54190;49.770;9.250;2023-12-04T12:41:06;8.77;;;5.23;;
67272;SDS011;54190;49.770;9.250;2023-12-04T12:43:33;9.00;;;5.30;;
67272;SDS011;54190;49.770;9.250;2023-12-04T12:46:00;12.57;;;5.07;;
67272;SDS011;54190;49.770;9.250;2023-12-04T12:48:26;9.57;;;5.20;;
67272;SDS011;54190;49.770;9.250;2023-12-04T12:50:52;7.47;;;4.60;;
67272;SDS011;54190;49.770;9.250;2023-12-04T12:53:20;11.10;;;5.33;;
67272;SDS011;54190;49.770;9.250;2023-12-04T12:55:47;9.17;;;4.70;;
67272;SDS011;54190;49.770;9.250;2023-12-04T12:58:13;10.90;;;5.80;;
67272;SDS011;54190;49.770;9.250;2023-12-04T13:00:43;14.93;;;5.57;;
67272;SDS011;54190;49.770;9.250;2023-12-04T13:03:14;9.43;;;5.47;;
67272;SDS011;54190;49.770;9.250;2023-12-04T13:05:40;11.10;;;6.07;;
67272;SDS011;54190;49.770;9.250;2023-12-04T13:08:06;9.63;;;6.37;;
67272;SDS011;54190;49.770;9.250;2023-12-04T13:10:32;11.63;;;5.47;;
67272;SDS011;54190;49.770;9.250;2023-12-04T13:13:01;10.17;;;6.17;;
67272;SDS011;54190;49.770;9.250;2023-12-04T13:15:27;15.53;;;6.20;;
67272;SDS011;54190;49.770;9.250;2023-12-04T13:17:54;12.73;;;5.97;;
67272;SDS011;54190;49.770;9.250;2023-12-04T13:20:19;15.07;;;7.40;;
67272;SDS011;54190;49.770;9.250;2023-12-04T13:22:46;15.23;;;6.33;;
67272;SDS011;54190;49.770;9.250;2023-12-04T13:25:12;12.23;;;5.97;;
67272;SDS011;54190;49.770;9.250;2023-12-04T13:27:38;10.27;;;5.47;;
67272;SDS011;54190;49.770;9.250;2023-12-04T13:30:07;11.87;;;5.87;;
67272;SDS011;54190;49.770;9.250;2023-12-04T13:32:37;10.03;;;5.67;;
67272;SDS011;54190;49.770;9.250;2023-12-04T13:35:04;9.50;;;5.47;;
67272;SDS011;54190;49.770;9.250;2023-12-04T13:37:31;12.33;;;5.63;;
67272;SDS011;54190;49.770;9.250;2023-12-04T13:40:02;14.23;;;7.73;;
67272;SDS011;54190;49.770;9.250;2023-12-04T13:42:54;12.07;;;5.60;;
67272;SDS011;54190;49.770;9.250;2023-12-04T13:45:39;11.53;;;6.17;;
67272;SDS011;54190;49.770;9.250;2023-12-04T13:48:05;15.60;;;5.77;;
67272;SDS011;54190;49.770;9.250;2023-12-04T13:50:31;19.10;;;6.20;;
67272;SDS011;54190;49.770;9.250;2023-12-04T13:52:56;12.40;;;5.30;;
67272;SDS011;54190;49.770;9.250;2023-12-04T13:55:26;11.57;;;5.40;;
67272;SDS011;54190;49.770;9.250;2023-12-04T13:58:18;7.87;;;4.70;;
67272;SDS011;54190;49.770;9.250;2023-12-04T14:01:03;8.70;;;5.27;;
67272;SDS011;54190;49.770;9.250;2023-12-04T14:03:44;11.40;;;6.07;;
67272;SDS011;54190;49.770;9.250;2023-12-04T14:06:10;10.77;;;5.30;;
67272;SDS011;54190;49.770;9.250;2023-12-04T14:08:39;12.20;;;6.00;;
67272;SDS011;54190;49.770;9.250;2023-12-04T14:11:05;15.13;;;6.60;;
67272;SDS011;54190;49.770;9.250;2023-12-04T14:13:32;10.33;;;5.63;;
67272;SDS011;54190;49.770;9.250;2023-12-04T14:15:58;9.37;;;5.30;;
67272;SDS011;54190;49.770;9.250;2023-12-04T14:18:24;8.47;;;4.97;;
67272;SDS011;54190;49.770;9.250;2023-12-04T14:20:51;12.37;;;5.50;;
67272;SDS011;54190;49.770;9.250;2023-12-04T14:23:17;8.87;;;4.83;;
67272;SDS011;54190;49.770;9.250;2023-12-04T14:25:46;11.00;;;5.73;;
67272;SDS011;54190;49.770;9.250;2023-12-04T14:28:15;10.33;;;6.00;;
67272;SDS011;54190;49.770;9.250;2023-12-04T14:30:44;9.40;;;5.63;;
67272;SDS011;54190;49.770;9.250;2023-12-04T14:33:10;12.47;;;6.03;;
67272;SDS011;54190;49.770;9.250;2023-12-04T14:35:36;13.60;;;6.00;;
67272;SDS011;54190;49.770;9.250;2023-12-04T14:38:04;11.43;;;6.50;;
67272;SDS011;54190;49.770;9.250;2023-12-04T14:40:33;15.47;;;7.40;;
67272;SDS011;54190;49.770;9.250;2023-12-04T14:42:59;9.43;;;5.43;;
67272;SDS011;54190;49.770;9.250;2023-12-04T14:45:25;11.87;;;6.50;;